createdAt,value
2019-06-15T00:00:59.201Z,100440.83
2019-06-15T00:03:27.909Z,100433.50
2019-06-15T00:05:56.835Z,100435.62
2019-06-15T00:08:26.104Z,100422.31
2019-06-15T00:10:55.131Z,100410.63
2019-06-15T00:13:23.884Z,100395.69
2019-06-15T00:15:52.581Z,100387.55
2019-06-15T00:18:21.244Z,100381.05
2019-06-15T00:20:50.042Z,100368.85
2019-06-15T00:23:18.983Z,100355.02
2019-06-15T00:25:47.714Z,100337.67
2019-06-15T00:28:16.497Z,100310.81
2019-06-15T00:30:45.255Z,100273.42
2019-06-15T00:33:14.293Z,100271.78
2019-06-15T00:35:43.280Z,100288.57
2019-06-15T00:38:11.965Z,100300.76
2019-06-15T00:40:40.805Z,100306.47
2019-06-15T00:43:09.620Z,100306.42
2019-06-15T00:45:38.459Z,100296.12
2019-06-15T00:48:07.146Z,100281.53
2019-06-15T00:50:35.833Z,100280.44
2019-06-15T00:53:04.516Z,100271.23
2019-06-15T00:55:33.780Z,100252.77
2019-06-15T00:58:02.557Z,100243.27
2019-06-15T01:00:31.408Z,100233.78
2019-06-15T01:03:00.097Z,100222.41
2019-06-15T01:05:29.042Z,100211.03
2019-06-15T01:07:57.762Z,100195.30
2019-06-15T01:10:26.834Z,100192.05
2019-06-15T01:12:55.844Z,100200.44
2019-06-15T01:15:26.463Z,100210.73
2019-06-15T01:17:55.274Z,100216.97
2019-06-15T01:20:24.684Z,100205.84
2019-06-15T01:22:53.496Z,100199.89
2019-06-15T01:25:22.239Z,100183.36
2019-06-15T01:27:50.951Z,100177.16
2019-06-15T01:30:19.724Z,100178.51
2019-06-15T01:32:48.475Z,100177.95
2019-06-15T01:35:17.651Z,100188.00
2019-06-15T01:37:46.389Z,100193.13
2019-06-15T01:40:16.684Z,100191.78
2019-06-15T01:42:45.484Z,100199.91
2019-06-15T01:45:14.398Z,100187.18
2019-06-15T01:47:43.154Z,100181.76
2019-06-15T01:50:12.129Z,100171.45
2019-06-15T01:52:40.904Z,100153.02
2019-06-15T01:56:14.801Z,100144.08
2019-06-15T01:58:43.573Z,100119.16
2019-06-15T02:01:15.086Z,100094.77
2019-06-15T02:03:43.781Z,100076.91
2019-06-15T02:06:12.618Z,100069.31
2019-06-15T02:08:41.288Z,100064.72
2019-06-15T02:11:10.006Z,100047.89
2019-06-15T02:13:38.818Z,100044.94
2019-06-15T02:16:07.634Z,100053.87
2019-06-15T02:18:36.450Z,100056.84
2019-06-15T02:21:07.251Z,100046.54
2019-06-15T02:23:37.413Z,100042.23
2019-06-15T02:26:06.248Z,100030.04
2019-06-15T02:28:35.088Z,100019.75
2019-06-15T02:31:04.030Z,100013.52
2019-06-15T02:33:32.813Z,100004.03
2019-06-15T02:36:01.597Z,100004.86
2019-06-15T02:38:30.374Z,99999.98
2019-06-15T02:40:59.518Z,99992.95
2019-06-15T02:43:28.278Z,99988.08
2019-06-15T02:45:57.069Z,99980.77
2019-06-15T02:48:25.958Z,99984.83
2019-06-15T02:50:54.716Z,99994.03
2019-06-15T02:53:23.548Z,99992.14
2019-06-15T02:55:52.709Z,99990.25
2019-06-15T02:58:21.531Z,99980.78
2019-06-15T03:00:56.573Z,99980.50
2019-06-15T03:03:25.590Z,99987.80
2019-06-15T03:05:54.628Z,99994.86
2019-06-15T03:08:23.452Z,100001.09
2019-06-15T03:10:55.489Z,100008.65
2019-06-15T03:13:24.352Z,100015.41
2019-06-15T03:15:53.121Z,100021.92
2019-06-15T03:18:21.918Z,100021.62
2019-06-15T03:20:50.648Z,100032.46
2019-06-15T03:23:19.560Z,100035.16
2019-06-15T03:25:48.342Z,100032.20
2019-06-15T03:28:17.301Z,100033.23
2019-06-15T03:30:46.117Z,100037.55
2019-06-15T03:33:14.814Z,100035.09
2019-06-15T03:35:44.005Z,100032.37
2019-06-15T03:38:12.762Z,100026.95
2019-06-15T03:40:42.226Z,100027.48
2019-06-15T03:43:11.447Z,100035.09
2019-06-15T03:45:40.256Z,100045.11
2019-06-15T03:48:09.213Z,100053.52
2019-06-15T03:50:38.269Z,100055.39
2019-06-15T03:53:07.338Z,100057.30
2019-06-15T03:55:36.267Z,100054.02
2019-06-15T03:58:05.565Z,100047.53
2019-06-15T04:00:46.000Z,100048.34
2019-06-15T04:03:14.846Z,100047.52
2019-06-15T04:05:43.831Z,100047.50
2019-06-15T04:08:12.834Z,100037.98
2019-06-15T04:10:41.733Z,100023.34
2019-06-15T04:13:10.839Z,100006.27
2019-06-15T04:15:39.812Z,100008.72
2019-06-15T04:18:11.037Z,100015.50
2019-06-15T04:20:40.008Z,100018.73
2019-06-15T04:23:08.770Z,100026.02
2019-06-15T04:25:37.607Z,100010.73
2019-06-15T04:28:06.408Z,100008.48
2019-06-15T04:30:35.153Z,100007.56
2019-06-15T04:33:05.352Z,100000.67
2019-06-15T04:35:34.099Z,99991.11
2019-06-15T04:38:02.829Z,99982.13
2019-06-15T04:40:31.764Z,99978.91
2019-06-15T04:43:00.611Z,99974.11
2019-06-15T04:45:29.368Z,99969.48
2019-06-15T04:47:58.151Z,99967.91
2019-06-15T04:50:27.123Z,99959.46
2019-06-15T04:52:55.944Z,99958.10
2019-06-15T04:55:24.763Z,99955.11
2019-06-15T04:57:53.473Z,99956.42
2019-06-15T05:00:22.424Z,99956.37
2019-06-15T05:02:51.148Z,99958.20
2019-06-15T05:05:19.911Z,99965.45
2019-06-15T05:07:48.633Z,99969.45
2019-06-15T05:10:17.437Z,99971.09
2019-06-15T05:12:46.127Z,99977.83
2019-06-15T05:15:16.583Z,99966.84
2019-06-15T05:17:46.302Z,99968.96
2019-06-15T05:20:15.424Z,99971.59
2019-06-15T05:22:44.520Z,99987.91
2019-06-15T05:25:13.561Z,100006.17
2019-06-15T05:27:42.280Z,100019.27
2019-06-15T05:30:11.235Z,100034.42
2019-06-15T05:32:40.007Z,100047.53
2019-06-15T05:35:08.965Z,100064.29
2019-06-15T05:37:37.723Z,100072.80
2019-06-15T05:40:06.930Z,100065.91
2019-06-15T05:42:36.026Z,100050.80
2019-06-15T05:45:05.665Z,100034.94
2019-06-15T05:47:34.982Z,100044.47
2019-06-15T05:50:03.813Z,100050.20
2019-06-15T05:52:33.056Z,100053.25
2019-06-15T05:55:01.754Z,100056.16
2019-06-15T05:57:30.518Z,100060.81
2019-06-15T05:59:59.735Z,100059.50
2019-06-15T06:02:28.585Z,100071.84
2019-06-15T06:04:57.281Z,100069.00
2019-06-15T06:07:25.984Z,100076.38
2019-06-15T06:09:56.298Z,100080.73
2019-06-15T06:12:25.021Z,100083.12
2019-06-15T06:14:53.790Z,100085.30
2019-06-15T06:17:22.500Z,100077.11
2019-06-15T06:19:51.443Z,100073.66
2019-06-15T06:22:20.279Z,100071.15
2019-06-15T06:24:49.494Z,100078.29
2019-06-15T06:27:18.279Z,100081.22
2019-06-15T06:29:46.966Z,100087.05
2019-06-15T06:32:15.702Z,100104.25
2019-06-15T06:34:44.444Z,100120.71
2019-06-15T06:37:13.201Z,100116.91
2019-06-15T06:39:41.954Z,100104.73
2019-06-15T06:42:13.676Z,100098.61
2019-06-15T06:44:42.434Z,100110.48
2019-06-15T06:47:11.232Z,100105.55
2019-06-15T06:49:40.457Z,100109.08
2019-06-15T06:52:09.202Z,100103.21
2019-06-15T06:54:38.021Z,100102.51
2019-06-15T06:57:08.068Z,100101.84
2019-06-15T06:59:36.898Z,100109.28
2019-06-15T07:02:06.007Z,100109.92
2019-06-15T07:04:34.795Z,100101.40
2019-06-15T07:07:03.548Z,100115.24
2019-06-15T07:09:32.320Z,100128.55
2019-06-15T07:12:01.059Z,100131.21
2019-06-15T07:14:29.832Z,100134.84
2019-06-15T07:16:58.538Z,100124.80
2019-06-15T07:19:27.312Z,100130.31
2019-06-15T07:21:56.105Z,100131.63
2019-06-15T07:24:25.068Z,100127.27
2019-06-15T07:26:53.846Z,100124.82
2019-06-15T07:29:23.125Z,100125.88
2019-06-15T07:31:51.910Z,100124.34
2019-06-15T07:34:20.584Z,100124.85
2019-06-15T07:36:49.312Z,100128.23
2019-06-15T07:39:18.015Z,100129.41
2019-06-15T07:41:46.813Z,100135.91
2019-06-15T07:44:15.810Z,100125.22
2019-06-15T07:46:45.674Z,100135.11
2019-06-15T07:49:14.590Z,100139.55
2019-06-15T07:51:43.462Z,100144.28
2019-06-15T07:54:12.402Z,100140.49
2019-06-15T07:56:41.600Z,100145.36
2019-06-15T07:59:10.549Z,100148.75
2019-06-15T08:01:39.350Z,100152.64
2019-06-15T08:04:08.077Z,100156.62
2019-06-15T08:06:36.770Z,100167.95
2019-06-15T08:09:06.619Z,100176.25
2019-06-15T08:11:35.890Z,100185.02
2019-06-15T08:14:04.790Z,100187.78
2019-06-15T08:16:33.565Z,100185.38
2019-06-15T08:19:04.101Z,100175.56
2019-06-15T08:21:32.845Z,100180.75
2019-06-15T08:24:04.756Z,100192.13
2019-06-15T08:26:32.152Z,100190.29
2019-06-15T08:29:01.113Z,100197.63
2019-06-15T08:31:29.912Z,100208.52
2019-06-15T08:33:58.707Z,100215.87
2019-06-15T08:36:27.422Z,100212.58
2019-06-15T08:38:56.600Z,100221.28
2019-06-15T08:41:25.458Z,100219.36
2019-06-15T08:43:54.503Z,100226.14
2019-06-15T08:46:23.353Z,100224.28
2019-06-15T08:48:52.212Z,100224.56
2019-06-15T08:51:20.991Z,100227.26
2019-06-15T08:53:49.671Z,100231.55
2019-06-15T08:56:18.382Z,100234.50
2019-06-15T08:58:55.515Z,100237.69
2019-06-15T09:01:17.846Z,100245.77
2019-06-15T09:03:49.444Z,100244.15
2019-06-15T09:06:17.011Z,100258.75
2019-06-15T09:08:45.694Z,100263.62
2019-06-15T09:11:14.495Z,100267.47
2019-06-15T09:13:43.611Z,100266.66
2019-06-15T09:16:12.391Z,100262.06
2019-06-15T09:18:41.079Z,100268.07
2019-06-15T09:21:09.798Z,100273.80
2019-06-15T09:23:38.540Z,100275.44
2019-06-15T09:26:07.322Z,100272.48
2019-06-15T09:28:36.042Z,100279.83
2019-06-15T09:31:05.005Z,100280.61
2019-06-15T09:33:34.156Z,100282.73
2019-06-15T09:36:02.983Z,100286.44
2019-06-15T09:38:31.725Z,100283.89
2019-06-15T09:41:00.764Z,100285.33
2019-06-15T09:43:29.719Z,100293.86
2019-06-15T09:45:58.880Z,100291.80
2019-06-15T09:48:27.574Z,100303.87
2019-06-15T09:50:56.601Z,100306.70
2019-06-15T09:53:25.552Z,100312.16
2019-06-15T09:55:54.348Z,100315.41
2019-06-15T09:58:23.412Z,100310.88
2019-06-15T10:00:52.144Z,100315.41
2019-06-15T10:03:20.879Z,100308.34
2019-06-15T10:05:49.619Z,100310.12
2019-06-15T10:08:18.320Z,100315.15
2019-06-15T10:10:47.032Z,100318.05
2019-06-15T10:13:15.832Z,100322.19
2019-06-15T10:15:44.699Z,100306.21
2019-06-15T10:18:13.679Z,100313.66
2019-06-15T10:20:42.931Z,100316.58
2019-06-15T10:23:11.787Z,100316.47
2019-06-15T10:25:40.522Z,100322.09
2019-06-15T10:28:09.668Z,100324.65
2019-06-15T10:30:38.519Z,100319.00
2019-06-15T10:33:07.218Z,100323.15
2019-06-15T10:35:35.980Z,100321.41
2019-06-15T10:38:05.083Z,100322.64
2019-06-15T10:40:33.807Z,100331.23
2019-06-15T10:43:02.770Z,100338.34
2019-06-15T10:45:31.953Z,100341.55
2019-06-15T10:48:00.661Z,100345.33
2019-06-15T10:50:29.654Z,100342.97
2019-06-15T10:52:58.745Z,100350.73
2019-06-15T10:55:27.435Z,100352.15
2019-06-15T10:57:56.233Z,100358.23
2019-06-15T11:00:25.499Z,100360.34
2019-06-15T11:02:54.300Z,100365.45
2019-06-15T11:05:23.075Z,100366.98
2019-06-15T11:07:52.170Z,100362.97
2019-06-15T11:10:36.123Z,100372.46
2019-06-15T11:13:04.952Z,100378.47
2019-06-15T11:15:33.826Z,100379.37
2019-06-15T11:18:02.625Z,100373.70
2019-06-15T11:20:31.391Z,100393.95
2019-06-15T11:23:00.341Z,100389.82
2019-06-15T11:25:29.118Z,100393.70
2019-06-15T11:27:57.910Z,100384.50
2019-06-15T11:30:26.778Z,100395.08
2019-06-15T11:32:55.504Z,100399.19
2019-06-15T11:35:24.263Z,100405.15
2019-06-15T11:37:53.027Z,100407.41
2019-06-15T11:40:21.815Z,100416.06
2019-06-15T11:42:51.741Z,100423.22
2019-06-15T11:45:20.776Z,100420.37
2019-06-15T11:47:49.483Z,100412.73
2019-06-15T11:50:18.579Z,100419.06
2019-06-15T11:52:47.613Z,100419.58
2019-06-15T11:55:19.714Z,100420.31
2019-06-15T11:57:46.898Z,100427.91
2019-06-15T12:00:30.895Z,100432.77
2019-06-15T12:02:47.880Z,100446.52
2019-06-15T12:05:16.648Z,100455.41
2019-06-15T12:07:45.584Z,100458.59
2019-06-15T12:10:14.713Z,100462.83
2019-06-15T12:12:43.642Z,100465.12
2019-06-15T12:15:12.500Z,100477.79
2019-06-15T12:17:41.209Z,100482.14
2019-06-15T12:20:10.045Z,100479.50
2019-06-15T12:22:38.877Z,100484.71
2019-06-15T12:25:07.711Z,100485.52
2019-06-15T12:27:36.564Z,100484.27
2019-06-15T12:30:05.911Z,100487.67
2019-06-15T12:32:36.218Z,100504.33
2019-06-15T12:35:05.323Z,100505.28
2019-06-15T12:37:34.072Z,100513.47
2019-06-15T12:40:03.027Z,100519.62
2019-06-15T12:42:31.801Z,100510.57
2019-06-15T12:45:00.780Z,100508.31
2019-06-15T12:47:29.527Z,100517.56
2019-06-15T12:49:58.456Z,100520.39
2019-06-15T12:52:27.171Z,100529.38
2019-06-15T12:54:56.234Z,100533.03
2019-06-15T12:57:25.009Z,100545.72
2019-06-15T12:59:53.725Z,100541.23
2019-06-15T13:02:22.495Z,100547.84
2019-06-15T13:04:51.193Z,100549.89
2019-06-15T13:07:20.231Z,100566.55
2019-06-15T13:09:48.954Z,100547.70
2019-06-15T13:12:17.961Z,100555.59
2019-06-15T13:14:46.928Z,100564.99
2019-06-15T13:17:19.549Z,100576.73
2019-06-15T13:19:48.375Z,100569.25
2019-06-15T13:22:17.121Z,100579.42
2019-06-15T13:24:45.892Z,100579.59
2019-06-15T13:27:14.645Z,100585.83
2019-06-15T13:29:43.713Z,100578.59
2019-06-15T13:32:12.574Z,100577.66
2019-06-15T13:34:41.332Z,100576.48
2019-06-15T13:37:10.234Z,100571.34
2019-06-15T13:39:40.130Z,100568.69
2019-06-15T13:42:08.853Z,100569.67
2019-06-15T13:44:37.537Z,100572.79
2019-06-15T13:47:06.323Z,100569.68
2019-06-15T13:49:35.280Z,100580.75
2019-06-15T13:52:04.189Z,100578.38
2019-06-15T13:54:32.890Z,100569.16
2019-06-15T13:57:01.577Z,100583.66
2019-06-15T13:59:30.379Z,100579.13
2019-06-15T14:01:59.166Z,100587.47
2019-06-15T14:04:27.959Z,100577.09
2019-06-15T14:06:56.730Z,100588.59
2019-06-15T14:09:25.693Z,100588.84
2019-06-15T14:11:54.605Z,100597.42
2019-06-15T14:14:23.347Z,100604.97
2019-06-15T14:16:52.585Z,100611.09
2019-06-15T14:19:21.371Z,100607.11
2019-06-15T14:21:50.173Z,100612.45
2019-06-15T14:24:18.934Z,100617.23
2019-06-15T14:26:47.661Z,100620.63
2019-06-15T14:29:17.746Z,100611.78
2019-06-15T14:31:50.218Z,100604.41
2019-06-15T14:34:17.215Z,100596.41
2019-06-15T14:36:46.152Z,100600.77
2019-06-15T14:39:14.881Z,100607.52
2019-06-15T14:41:46.822Z,100608.34
2019-06-15T14:44:14.243Z,100610.99
2019-06-15T14:46:43.060Z,100602.33
2019-06-15T14:49:11.779Z,100615.27
2019-06-15T14:51:40.467Z,100612.88
2019-06-15T14:54:09.264Z,100614.99
2019-06-15T14:56:38.029Z,100617.67
2019-06-15T14:59:06.722Z,100610.55
2019-06-15T15:01:35.589Z,100614.31
2019-06-15T15:04:06.308Z,100613.40
2019-06-15T15:06:36.799Z,100616.00
2019-06-15T15:09:07.018Z,100612.26
2019-06-15T15:11:36.702Z,100615.45
2019-06-15T15:14:06.717Z,100618.02
2019-06-15T15:16:35.710Z,100616.39
2019-06-15T15:19:06.109Z,100610.63
2019-06-15T15:21:37.014Z,100613.43
2019-06-15T15:24:06.232Z,100599.69
2019-06-15T15:26:37.063Z,100613.04
2019-06-15T15:29:07.007Z,100606.39
2019-06-15T15:31:36.275Z,100605.00
2019-06-15T15:34:07.776Z,100611.66
2019-06-15T15:36:36.870Z,100608.45
2019-06-15T15:39:10.091Z,100614.97
2019-06-15T15:41:37.197Z,100598.80
2019-06-15T15:44:05.931Z,100603.55
2019-06-15T15:46:34.796Z,100609.95
2019-06-15T15:49:03.658Z,100603.84
2019-06-15T15:51:32.393Z,100612.84
2019-06-15T15:54:01.484Z,100614.99
2019-06-15T15:56:30.578Z,100616.59
2019-06-15T15:58:59.350Z,100618.45
2019-06-15T16:01:28.110Z,100620.77
2019-06-15T16:03:56.810Z,100611.88
2019-06-15T16:06:26.222Z,100624.93
2019-06-15T16:08:56.962Z,100620.77
2019-06-15T16:11:26.690Z,100620.23
2019-06-15T16:13:56.469Z,100635.30
2019-06-15T16:16:26.686Z,100626.94
2019-06-15T16:18:56.194Z,100625.56
2019-06-15T16:21:26.139Z,100623.23
2019-06-15T16:23:58.146Z,100624.34
2019-06-15T16:26:27.262Z,100626.63
2019-06-15T16:28:56.375Z,100634.74
2019-06-15T16:31:28.530Z,100627.55
2019-06-15T16:33:55.886Z,100620.11
2019-06-15T16:36:24.609Z,100620.23
2019-06-15T16:38:53.444Z,100624.80
2019-06-15T16:41:22.266Z,100625.76
2019-06-15T16:43:51.024Z,100622.45
2019-06-15T16:46:19.728Z,100619.98
2019-06-15T16:48:48.737Z,100623.61
2019-06-15T16:51:17.437Z,100619.28
2019-06-15T16:53:47.367Z,100623.22
2019-06-15T16:56:16.733Z,100617.89
2019-06-15T16:58:46.880Z,100628.56
2019-06-15T17:01:16.780Z,100634.14
2019-06-15T17:03:46.990Z,100616.28
2019-06-15T17:06:16.180Z,100629.17
2019-06-15T17:08:46.534Z,100632.17
2019-06-15T17:11:17.330Z,100626.94
2019-06-15T17:13:47.501Z,100637.37
2019-06-15T17:16:16.913Z,100632.00
2019-06-15T17:18:47.069Z,100633.75
2019-06-15T17:21:17.085Z,100631.00
2019-06-15T17:23:46.730Z,100625.23
2019-06-15T17:26:16.866Z,100629.28
2019-06-15T17:28:46.099Z,100639.34
2019-06-15T17:31:16.640Z,100638.19
2019-06-15T17:33:46.898Z,100642.31
2019-06-15T17:36:15.826Z,100637.09
2019-06-15T17:38:47.804Z,100627.47
2019-06-15T17:41:17.342Z,100627.63
2019-06-15T17:43:47.371Z,100629.64
2019-06-15T17:46:16.607Z,100631.02
2019-06-15T17:48:46.749Z,100632.10
2019-06-15T17:51:16.198Z,100634.23
2019-06-15T17:53:47.392Z,100642.38
2019-06-15T17:56:16.316Z,100650.70
2019-06-15T17:58:46.391Z,100654.10
2019-06-15T18:01:17.228Z,100644.05
2019-06-15T18:03:54.031Z,100652.76
2019-06-15T18:06:17.478Z,100656.28
2019-06-15T18:08:46.643Z,100644.97
2019-06-15T18:11:16.773Z,100645.08
2019-06-15T18:13:47.217Z,100642.26
2019-06-15T18:16:16.155Z,100645.12
2019-06-15T18:18:44.918Z,100649.20
2019-06-15T18:21:15.927Z,100651.23
2019-06-15T18:23:46.423Z,100652.42
2019-06-15T18:26:16.118Z,100653.67
2019-06-15T18:28:46.910Z,100654.36
2019-06-15T18:31:16.305Z,100656.86
2019-06-15T18:33:47.327Z,100654.36
2019-06-15T18:36:17.142Z,100655.16
2019-06-15T18:38:46.648Z,100652.62
2019-06-15T18:41:16.957Z,100660.74
2019-06-15T18:43:45.817Z,100659.50
2019-06-15T18:46:14.841Z,100658.05
2019-06-15T18:48:43.612Z,100663.25
2019-06-15T18:51:12.400Z,100663.30
2019-06-15T18:53:41.623Z,100663.27
2019-06-15T18:56:10.341Z,100661.42
2019-06-15T18:58:39.960Z,100665.06
2019-06-15T19:01:08.649Z,100670.35
2019-06-15T19:03:37.754Z,100676.75
2019-06-15T19:06:06.813Z,100671.20
2019-06-15T19:08:35.450Z,100671.09
2019-06-15T19:11:06.800Z,100673.70
2019-06-15T19:13:36.042Z,100680.67
2019-06-15T19:16:06.990Z,100680.86
2019-06-15T19:18:37.012Z,100678.55
2019-06-15T19:21:06.988Z,100683.03
2019-06-15T19:23:36.167Z,100688.83
2019-06-15T19:26:06.314Z,100689.19
2019-06-15T19:28:37.033Z,100696.05
2019-06-15T19:31:06.602Z,100692.81
2019-06-15T19:33:37.730Z,100698.53
2019-06-15T19:36:06.360Z,100696.66
2019-06-15T19:38:36.240Z,100698.56
2019-06-15T19:41:06.932Z,100705.27
2019-06-15T19:43:36.323Z,100710.80
2019-06-15T19:46:06.799Z,100714.93
2019-06-15T19:48:36.861Z,100717.41
2019-06-15T19:51:05.787Z,100713.09
2019-06-15T19:53:36.389Z,100714.39
2019-06-15T19:56:06.887Z,100716.34
2019-06-15T19:58:35.482Z,100719.50
2019-06-15T20:01:06.788Z,100719.02
2019-06-15T20:03:36.133Z,100729.44
2019-06-15T20:06:06.499Z,100728.11
2019-06-15T20:08:36.133Z,100734.74
2019-06-15T20:11:07.180Z,100733.83
2019-06-15T20:13:37.041Z,100750.05
2019-06-15T20:16:07.854Z,100747.39
2019-06-15T20:18:37.479Z,100751.56
2019-06-15T20:21:07.349Z,100760.36
2019-06-15T20:23:37.238Z,100759.41
2019-06-15T20:26:06.799Z,100759.12
2019-06-15T20:28:35.906Z,100757.52
2019-06-15T20:31:06.437Z,100759.19
2019-06-15T20:33:36.919Z,100759.04
2019-06-15T20:36:06.679Z,100755.66
2019-06-15T20:38:36.299Z,100766.55
2019-06-15T20:41:07.290Z,100769.14
2019-06-15T20:43:36.661Z,100761.70
2019-06-15T20:46:07.039Z,100764.81
2019-06-15T20:48:36.453Z,100758.59
2019-06-15T20:51:09.811Z,100748.85
2019-06-15T20:53:36.753Z,100748.33
2019-06-15T20:56:06.646Z,100745.98
2019-06-15T20:58:37.360Z,100751.85
2019-06-15T21:01:07.097Z,100756.45
2019-06-15T21:03:36.690Z,100769.06
2019-06-15T21:06:06.843Z,100770.88
2019-06-15T21:08:36.502Z,100763.91
2019-06-15T21:11:07.115Z,100764.30
2019-06-15T21:13:37.451Z,100762.37
2019-06-15T21:16:06.801Z,100758.58
2019-06-15T21:18:37.125Z,100762.25
2019-06-15T21:21:06.855Z,100761.67
2019-06-15T21:23:37.213Z,100759.89
2019-06-15T21:26:06.875Z,100761.85
2019-06-15T21:28:36.854Z,100755.70
2019-06-15T21:31:06.031Z,100762.37
2019-06-15T21:33:36.136Z,100763.53
2019-06-15T21:36:06.260Z,100766.37
2019-06-15T21:38:36.174Z,100773.88
2019-06-15T21:41:07.555Z,100773.29
2019-06-15T21:43:36.322Z,100780.55
2019-06-15T21:46:06.341Z,100783.16
2019-06-15T21:48:36.465Z,100781.80
2019-06-15T21:51:07.818Z,100785.23
2019-06-15T21:53:36.301Z,100786.30
2019-06-15T21:56:07.149Z,100783.23
2019-06-15T21:58:36.715Z,100787.73
2019-06-15T22:01:31.972Z,100785.47
2019-06-15T22:04:00.829Z,100786.25
2019-06-15T22:06:29.644Z,100788.73
2019-06-15T22:08:58.826Z,100795.09
2019-06-15T22:11:27.702Z,100804.85
2019-06-15T22:13:57.109Z,100805.17
2019-06-15T22:16:27.565Z,100799.06
2019-06-15T22:18:56.438Z,100802.70
2019-06-15T22:21:27.867Z,100803.91
2019-06-15T22:23:55.957Z,100803.77
2019-06-15T22:26:26.691Z,100803.02
2019-06-15T22:28:56.930Z,100800.66
2019-06-15T22:31:26.500Z,100813.08
2019-06-15T22:33:56.694Z,100819.87
2019-06-15T22:36:28.488Z,100820.11
2019-06-15T22:38:56.964Z,100829.70
2019-06-15T22:41:25.989Z,100836.17
2019-06-15T22:43:56.782Z,100848.34
2019-06-15T22:46:26.184Z,100855.87
2019-06-15T22:48:56.205Z,100859.23
2019-06-15T22:51:27.500Z,100862.83
2019-06-15T22:53:56.559Z,100866.86
2019-06-15T22:56:26.371Z,100869.23
2019-06-15T22:58:57.024Z,100880.67
2019-06-15T23:01:26.220Z,100878.66
2019-06-15T23:03:57.130Z,100883.59
2019-06-15T23:06:36.727Z,100878.38
2019-06-15T23:08:56.554Z,100885.92
2019-06-15T23:11:26.623Z,100887.55
2019-06-15T23:13:57.415Z,100890.63
2019-06-15T23:16:27.334Z,100892.11
2019-06-15T23:18:57.012Z,100890.17
2019-06-15T23:21:26.916Z,100887.20
2019-06-15T23:23:56.429Z,100894.52
2019-06-15T23:26:25.104Z,100893.64
2019-06-15T23:28:56.220Z,100896.33
2019-06-15T23:31:24.563Z,100900.48
2019-06-15T23:33:55.898Z,100910.78
2019-06-15T23:36:28.700Z,100910.62
2019-06-15T23:38:57.454Z,100917.66
2019-06-15T23:41:27.260Z,100924.47
2019-06-15T23:43:56.359Z,100930.03
2019-06-15T23:46:27.206Z,100928.77
2019-06-15T23:48:56.623Z,100933.91
2019-06-15T23:51:26.472Z,100928.22
2019-06-15T23:53:57.221Z,100932.65
2019-06-15T23:56:26.248Z,100925.94
2019-06-15T23:58:56.102Z,100930.39
